Time;durP1;ratioP1;P1;durP2;ratioP2;P2;SDS_P1;SDS_P2;PMS_P1;PMS_P2;Temp;Humidity;BMP_temperature;BMP_pressure;BME280_temperature;BME280_humidity;BME280_pressure;Samples;Min_cycle;Max_cycle;Signal;HPM_P1;HPM_P2
2021/04/11 00:00:26;;;;;;;3.27;2.63;;;10.60;99.90;;;;;;5032039;28;20452;-89
2021/04/11 00:02:53;;;;;;;3.90;2.80;;;10.30;99.90;;;;;;5032593;28;20502;-89
2021/04/11 00:05:23;;;;;;;3.67;3.13;;;10.30;99.90;;;;;;5033664;28;20452;-88
2021/04/11 00:07:50;;;;;;;3.90;3.00;;;;;;;;;;5033537;28;20517;-89
2021/04/11 00:10:23;;;;;;;4.57;3.47;;;10.20;99.90;;;;;;5029991;28;20456;-90
2021/04/11 00:12:49;;;;;;;5.17;3.53;;;10.00;99.90;;;;;;5033476;28;20490;-88
2021/04/11 00:15:17;;;;;;;5.27;3.50;;;10.00;99.90;;;;;;5032947;28;20491;-88
2021/04/11 00:17:44;;;;;;;5.10;2.83;;;9.90;99.90;;;;;;5032222;28;20452;-88
2021/04/11 00:20:12;;;;;;;5.53;3.03;;;10.00;99.90;;;;;;5029022;28;20506;-88
2021/04/11 00:22:41;;;;;;;4.50;2.67;;;9.90;99.90;;;;;;5033283;28;20724;-86
2021/04/11 00:25:10;;;;;;;2.90;2.60;;;9.70;99.90;;;;;;5030091;28;20509;-89
2021/04/11 00:27:36;;;;;;;4.13;2.90;;;;;;;;;;5033145;28;20475;-88
2021/04/11 00:30:04;;;;;;;4.53;2.30;;;9.60;99.90;;;;;;5033077;28;20498;-88
2021/04/11 00:32:30;;;;;;;5.03;2.40;;;9.40;99.90;;;;;;5031700;28;20517;-90
2021/04/11 00:34:56;;;;;;;6.40;3.10;;;9.40;99.90;;;;;;5032949;28;20495;-89
2021/04/11 00:37:23;;;;;;;3.17;2.20;;;9.40;99.90;;;;;;5030494;28;20689;-88
2021/04/11 00:39:50;;;;;;;4.47;2.77;;;9.30;99.90;;;;;;5033134;28;20451;-89
2021/04/11 00:42:24;;;;;;;5.47;2.90;;;9.20;99.90;;;;;;5033192;28;20825;-90
2021/04/11 00:44:52;;;;;;;5.00;3.50;;;9.30;99.90;;;;;;5029915;28;20448;-90
2021/04/11 00:47:19;;;;;;;3.20;2.83;;;9.00;99.90;;;;;;5029840;28;21020;-88
2021/04/11 00:49:47;;;;;;;3.37;2.80;;;9.10;99.90;;;;;;5033104;28;20502;-88
2021/04/11 00:52:14;;;;;;;4.30;2.97;;;9.20;99.90;;;;;;5032996;28;20451;-89
2021/04/11 00:54:41;;;;;;;3.93;2.30;;;8.80;99.90;;;;;;5032790;28;20990;-89
2021/04/11 00:57:11;;;;;;;3.00;1.80;;;9.20;99.90;;;;;;5030059;28;20966;-88
2021/04/11 00:59:38;;;;;;;2.97;2.53;;;9.30;99.90;;;;;;5032725;28;20445;-87
2021/04/11 01:02:05;;;;;;;3.40;2.13;;;8.30;99.90;;;;;;5031811;28;20458;-88
2021/04/11 01:04:31;;;;;;;2.73;1.83;;;9.40;99.90;;;;;;5029882;28;20454;-88
2021/04/11 01:06:59;;;;;;;3.03;1.80;;;8.80;99.90;;;;;;5029542;28;20490;-88
2021/04/11 01:09:31;;;;;;;2.50;2.10;;;8.90;99.90;;;;;;5026352;28;20443;-89
2021/04/11 01:11:59;;;;;;;2.77;2.07;;;8.80;99.90;;;;;;5032594;28;20464;-88
2021/04/11 01:14:30;;;;;;;3.67;2.23;;;8.80;99.90;;;;;;5032821;28;20514;-88
2021/04/11 01:16:58;;;;;;;2.37;2.17;;;8.90;99.90;;;;;;5028635;28;20779;-89
2021/04/11 01:19:30;;;;;;;3.77;2.17;;;8.70;99.90;;;;;;5032588;28;20451;-89
2021/04/11 01:22:05;;;;;;;5.07;4.10;;;8.20;99.90;;;;;;5032607;28;20463;-89
2021/04/11 01:24:37;;;;;;;5.23;4.43;;;8.40;99.90;;;;;;5030386;28;20458;-87
2021/04/11 01:27:07;;;;;;;10.40;6.90;;;9.00;99.90;;;;;;5033006;28;20835;-88
2021/04/11 01:29:34;;;;;;;10.03;8.30;;;8.30;99.90;;;;;;5036803;28;20440;-89
2021/04/11 01:32:00;;;;;;;9.80;6.93;;;8.80;99.90;;;;;;5031637;28;20469;-88
2021/04/11 01:34:27;;;;;;;8.87;6.70;;;8.70;99.90;;;;;;5033310;28;20479;-88
2021/04/11 01:36:54;;;;;;;4.57;3.80;;;;;;;;;;5036629;28;20504;-89
2021/04/11 01:39:23;;;;;;;7.40;4.60;;;8.80;99.90;;;;;;5036508;28;20452;-87
2021/04/11 01:41:53;;;;;;;6.50;4.50;;;8.70;99.90;;;;;;5036388;28;20439;-90
2021/04/11 01:44:22;;;;;;;6.30;3.87;;;8.80;99.90;;;;;;5036302;28;20482;-88
2021/04/11 01:46:49;;;;;;;4.37;3.30;;;9.30;99.90;;;;;;5035781;28;20454;-88
2021/04/11 01:49:17;;;;;;;5.47;3.40;;;8.80;99.90;;;;;;5036289;28;20487;-88
2021/04/11 01:51:48;;;;;;;4.13;3.00;;;8.70;99.90;;;;;;5036122;28;20446;-89
2021/04/11 01:54:19;;;;;;;3.63;3.13;;;9.00;99.90;;;;;;5029107;28;20536;-89
2021/04/11 01:56:47;;;;;;;4.20;3.80;;;8.80;99.90;;;;;;5036037;28;20501;-89
2021/04/11 01:59:18;;;;;;;5.93;4.80;;;9.00;99.90;;;;;;5036097;28;20448;-88
2021/04/11 02:01:48;;;;;;;8.33;4.50;;;9.10;99.90;;;;;;5035963;28;20448;-86
2021/04/11 02:04:15;;;;;;;5.53;3.23;;;9.20;99.90;;;;;;5035466;28;20447;-87
2021/04/11 02:06:45;;;;;;;5.50;4.60;;;9.60;99.90;;;;;;5035854;28;20475;-88
2021/04/11 02:09:15;;;;;;;6.20;4.33;;;9.40;99.90;;;;;;5028378;28;20451;-89
2021/04/11 02:11:42;;;;;;;4.47;3.00;;;9.70;99.90;;;;;;5034236;28;20435;-90
2021/04/11 02:14:10;;;;;;;3.60;3.17;;;9.40;99.90;;;;;;5034120;28;20483;-88
2021/04/11 02:16:37;;;;;;;4.47;3.43;;;9.30;99.90;;;;;;5035705;28;20450;-88
2021/04/11 02:19:06;;;;;;;4.03;3.30;;;9.40;99.90;;;;;;5034494;28;20458;-89
2021/04/11 02:21:33;;;;;;;4.70;3.87;;;9.20;99.90;;;;;;5035670;28;20451;-90
2021/04/11 02:24:00;;;;;;;5.27;3.37;;;;;;;;;;5035579;28;20459;-88
2021/04/11 02:26:27;;;;;;;3.20;2.90;;;9.10;99.90;;;;;;5031107;28;20448;-88
2021/04/11 02:28:53;;;;;;;4.67;2.70;;;9.10;99.90;;;;;;5031970;28;20493;-87
2021/04/11 02:31:20;;;;;;;8.87;2.40;;;9.30;99.90;;;;;;5035434;28;20506;-89
2021/04/11 02:33:54;;;;;;;3.37;2.40;;;9.20;99.90;;;;;;5034493;28;20455;-89
2021/04/11 02:36:22;;;;;;;3.27;1.87;;;9.40;99.90;;;;;;5035531;28;20455;-90
2021/04/11 02:38:52;;;;;;;3.40;2.30;;;9.30;99.90;;;;;;5035023;28;20451;-88
2021/04/11 02:41:19;;;;;;;2.50;1.93;;;9.10;99.90;;;;;;5030063;28;20954;-89
2021/04/11 02:43:46;;;;;;;2.43;1.70;;;9.40;99.90;;;;;;5035260;28;20444;-88
2021/04/11 02:46:13;;;;;;;3.03;2.13;;;9.30;99.90;;;;;;5029389;28;20955;-88
2021/04/11 02:48:40;;;;;;;4.23;2.43;;;9.50;99.90;;;;;;5029999;28;20439;-88
2021/04/11 02:51:07;;;;;;;3.87;2.40;;;9.40;99.90;;;;;;5031986;28;20448;-90
2021/04/11 02:53:35;;;;;;;5.70;2.50;;;9.30;99.90;;;;;;5035029;28;20515;-88
2021/04/11 02:56:02;;;;;;;2.73;1.90;;;9.30;99.90;;;;;;5034791;28;20518;-88
2021/04/11 02:58:29;;;;;;;2.03;1.80;;;9.30;99.90;;;;;;5034954;28;20439;-90
2021/04/11 03:00:59;;;;;;;2.57;2.00;;;9.20;99.90;;;;;;5034914;28;20512;-87
2021/04/11 03:03:27;;;;;;;1.90;1.80;;;9.40;99.90;;;;;;5033776;28;20455;-88
2021/04/11 03:05:54;;;;;;;1.93;1.73;;;8.90;99.90;;;;;;5034650;28;20967;-89
2021/04/11 03:08:25;;;;;;;2.03;1.80;;;9.30;99.90;;;;;;5034642;28;20887;-89
2021/04/11 03:10:58;;;;;;;2.87;1.73;;;9.30;99.90;;;;;;5030318;28;20509;-88
2021/04/11 03:13:25;;;;;;;2.50;2.27;;;9.40;99.90;;;;;;5034745;28;20450;-88
2021/04/11 03:15:56;;;;;;;2.80;2.10;;;8.70;99.90;;;;;;5030236;28;20490;-89
2021/04/11 03:18:23;;;;;;;3.13;2.30;;;9.20;99.90;;;;;;5033490;28;20496;-89
2021/04/11 03:20:51;;;;;;;6.07;2.10;;;9.30;99.90;;;;;;5034453;28;20954;-90
2021/04/11 03:23:20;;;;;;;2.50;2.07;;;9.70;99.90;;;;;;5034178;28;20447;-89
2021/04/11 03:25:51;;;;;;;4.03;1.80;;;9.30;99.90;;;;;;5029056;28;20443;-87
2021/04/11 03:28:22;;;;;;;2.33;1.90;;;9.10;99.90;;;;;;5031082;28;20491;-89
2021/04/11 03:30:56;;;;;;;2.73;2.20;;;9.10;99.90;;;;;;5034240;28;20447;-89
2021/04/11 03:33:24;;;;;;;2.37;1.83;;;9.20;99.90;;;;;;5033120;28;20451;-89
2021/04/11 03:35:52;;;;;;;4.30;1.90;;;9.20;99.90;;;;;;5029723;28;20506;-90
2021/04/11 03:38:23;;;;;;;1.90;1.70;;;9.10;99.90;;;;;;5031317;28;20456;-89
2021/04/11 03:40:52;;;;;;;5.10;2.20;;;8.90;99.90;;;;;;5034335;28;20439;-91
2021/04/11 03:43:22;;;;;;;2.53;1.80;;;8.60;99.90;;;;;;5034103;28;20451;-87
2021/04/11 03:45:48;;;;;;;3.87;3.40;;;8.70;99.90;;;;;;5034011;28;20455;-88
2021/04/11 03:48:22;;;;;;;2.93;2.10;;;9.50;99.90;;;;;;5014563;28;20455;-87
2021/04/11 03:50:57;;;;;;;1.97;1.80;;;9.10;99.90;;;;;;5033264;28;20436;-88
2021/04/11 03:53:27;;;;;;;2.43;1.87;;;9.30;99.90;;;;;;5033926;28;20455;-88
2021/04/11 03:56:00;;;;;;;2.27;1.77;;;9.20;99.90;;;;;;5029621;28;20494;-89
2021/04/11 03:58:30;;;;;;;1.60;1.40;;;9.30;99.90;;;;;;5033757;28;20459;-87
2021/04/11 04:01:00;;;;;;;1.60;1.47;;;9.30;99.90;;;;;;5033686;28;20443;-89
2021/04/11 04:03:31;;;;;;;1.60;1.40;;;9.40;99.90;;;;;;5028661;28;20854;-88
2021/04/11 04:06:02;;;;;;;3.20;1.87;;;10.00;99.90;;;;;;5033711;28;20494;-88
2021/04/11 04:08:28;;;;;;;2.60;1.77;;;9.50;99.90;;;;;;5033817;28;20455;-88
2021/04/11 04:11:13;;;;;;;2.40;2.20;;;9.60;99.90;;;;;;5033480;28;20455;-90
2021/04/11 04:13:55;;;;;;;4.50;1.93;;;9.70;99.90;;;;;;5033497;28;20459;-88
2021/04/11 04:16:32;;;;;;;1.93;1.63;;;9.80;99.90;;;;;;5031687;28;20455;-90
2021/04/11 04:19:26;;;;;;;2.93;1.73;;;9.50;99.90;;;;;;5032333;28;20800;-88
2021/04/11 04:22:08;;;;;;;1.87;1.27;;;9.80;99.90;;;;;;5028018;28;20974;-89
2021/04/11 04:24:42;;;;;;;2.30;1.87;;;9.70;99.90;;;;;;5033364;28;20455;-88
2021/04/11 04:27:27;;;;;;;2.47;2.07;;;9.60;99.90;;;;;;5033510;28;21006;-88
2021/04/11 04:30:14;;;;;;;3.00;1.70;;;9.40;99.90;;;;;;5030584;28;20451;-88
2021/04/11 04:33:06;;;;;;;2.10;1.40;;;9.40;99.90;;;;;;5032199;28;20490;-90
2021/04/11 04:35:41;;;;;;;3.43;1.67;;;9.50;99.90;;;;;;5033217;28;21013;-89
2021/04/11 04:38:17;;;;;;;2.57;1.03;;;9.10;99.90;;;;;;5030452;28;20446;-88
2021/04/11 04:40:51;;;;;;;2.60;1.77;;;9.60;99.90;;;;;;5030099;28;20966;-90
2021/04/11 04:43:24;;;;;;;1.60;1.17;;;9.20;99.90;;;;;;5033324;28;20443;-89
2021/04/11 04:46:05;;;;;;;1.60;1.40;;;9.40;99.90;;;;;;5033037;28;20470;-89
2021/04/11 04:48:35;;;;;;;1.67;1.57;;;9.30;99.90;;;;;;5029019;28;20479;-89
2021/04/11 04:51:06;;;;;;;1.50;1.30;;;9.40;99.90;;;;;;5033070;28;20448;-88
2021/04/11 04:53:36;;;;;;;2.10;1.57;;;9.30;99.90;;;;;;5032974;28;20451;-90
2021/04/11 04:56:05;;;;;;;1.60;1.40;;;9.40;99.90;;;;;;5028356;28;20491;-89
2021/04/11 04:58:36;;;;;;;3.37;1.03;;;9.40;99.90;;;;;;5033035;28;20439;-89
2021/04/11 05:01:08;;;;;;;1.67;1.20;;;9.40;99.90;;;;;;5033165;28;20828;-88
2021/04/11 05:03:37;;;;;;;1.73;1.30;;;9.30;99.90;;;;;;5031909;28;20518;-89
2021/04/11 05:06:09;;;;;;;1.43;1.03;;;8.80;99.90;;;;;;5032793;28;20471;-89
2021/04/11 05:08:44;;;;;;;1.93;1.30;;;9.30;99.90;;;;;;5032824;28;20459;-88
2021/04/11 05:11:17;;;;;;;2.30;1.20;;;9.20;99.90;;;;;;5032686;28;20478;-89
2021/04/11 05:13:49;;;;;;;1.40;1.30;;;9.30;99.90;;;;;;5032727;28;20447;-88
2021/04/11 05:16:19;;;;;;;2.30;1.40;;;9.60;99.90;;;;;;5032586;28;20858;-88
2021/04/11 05:18:49;;;;;;;1.57;1.20;;;9.70;99.90;;;;;;5025441;28;20888;-90
2021/04/11 05:21:20;;;;;;;2.73;1.60;;;9.30;99.90;;;;;;5028509;28;20811;-89
2021/04/11 05:23:50;;;;;;;3.70;1.67;;;9.70;99.90;;;;;;5033002;28;20456;-89
2021/04/11 05:26:21;;;;;;;1.73;1.47;;;9.70;99.90;;;;;;5029929;28;20883;-89
2021/04/11 05:28:58;;;;;;;2.27;1.60;;;9.70;99.90;;;;;;5032677;28;20474;-88
2021/04/11 05:31:28;;;;;;;1.20;1.10;;;9.50;99.90;;;;;;5032705;28;20451;-88
2021/04/11 05:33:55;;;;;;;1.67;1.50;;;9.70;99.90;;;;;;5031559;28;20447;-89
2021/04/11 05:36:35;;;;;;;2.00;1.23;;;9.90;99.90;;;;;;5032668;28;20502;-90
2021/04/11 05:39:11;;;;;;;1.93;1.57;;;10.30;99.90;;;;;;5032308;28;20432;-89
2021/04/11 05:41:43;;;;;;;1.90;1.50;;;10.20;99.90;;;;;;5032298;28;20949;-89
2021/04/11 05:44:16;;;;;;;2.07;1.17;;;9.80;99.90;;;;;;5032283;28;20446;-89
2021/04/11 05:46:47;;;;;;;1.37;1.10;;;10.50;99.90;;;;;;5032161;28;20955;-89
2021/04/11 05:49:18;;;;;;;1.67;1.30;;;10.40;99.90;;;;;;5031758;28;20455;-88
2021/04/11 05:51:52;;;;;;;2.53;1.97;;;10.30;99.90;;;;;;5029399;28;20927;-88
2021/04/11 05:54:21;;;;;;;3.17;1.50;;;10.50;99.90;;;;;;5029112;28;20440;-89
2021/04/11 05:56:51;;;;;;;2.33;1.20;;;10.70;99.90;;;;;;5029128;28;20443;-89
2021/04/11 05:59:22;;;;;;;2.47;2.27;;;10.30;99.90;;;;;;5032344;28;20442;-90
2021/04/11 06:01:51;;;;;;;2.93;1.70;;;10.60;99.90;;;;;;5026090;28;20466;-88
2021/04/11 06:04:21;;;;;;;5.03;1.80;;;10.70;99.90;;;;;;5031682;28;20471;-90
2021/04/11 06:06:53;;;;;;;2.13;1.37;;;10.70;99.90;;;;;;5032359;28;20466;-88
2021/04/11 06:09:26;;;;;;;6.77;1.90;;;10.70;99.90;;;;;;5032067;28;20454;-90
2021/04/11 06:11:59;;;;;;;2.80;1.50;;;11.20;99.90;;;;;;5028702;28;20443;-89
2021/04/11 06:14:31;;;;;;;5.53;1.30;;;11.40;99.90;;;;;;5034552;28;20443;-88
2021/04/11 06:16:58;;;;;;;3.50;1.70;;;11.20;99.90;;;;;;5034915;28;20446;-88
2021/04/11 06:19:25;;;;;;;1.83;1.30;;;12.10;99.90;;;;;;5036286;28;20474;-89
2021/04/11 06:21:58;;;;;;;1.60;1.20;;;11.60;99.90;;;;;;5032628;28;20519;-88
2021/04/11 06:24:43;;;;;;;3.97;1.57;;;11.80;99.90;;;;;;5031633;28;20444;-89
2021/04/11 06:27:23;;;;;;;4.77;2.07;;;11.80;99.90;;;;;;5035510;28;20479;-90
2021/04/11 06:29:58;;;;;;;2.77;1.37;;;11.90;99.90;;;;;;5032556;28;20837;-89
2021/04/11 06:32:27;;;;;;;5.37;2.27;;;12.10;99.90;;;;;;5034357;28;20531;-88
2021/04/11 06:34:59;;;;;;;4.63;2.23;;;12.20;99.90;;;;;;5032321;28;20493;-90
2021/04/11 06:37:29;;;;;;;2.77;1.40;;;12.40;99.90;;;;;;5035211;28;20462;-89
2021/04/11 06:39:56;;;;;;;4.00;1.47;;;12.70;99.90;;;;;;5035150;28;20950;-89
2021/04/11 06:43:09;;;;;;;11.20;10.03;;;13.30;99.90;;;;;;5035153;28;20451;-89
2021/04/11 06:45:40;;;;;;;2.27;1.30;;;13.90;99.90;;;;;;4974291;28;20454;-88
2021/04/11 06:48:45;;;;;;;2.60;1.60;;;13.90;97.60;;;;;;4973183;28;20461;-89
2021/04/11 06:51:28;;;;;;;2.53;1.80;;;14.10;99.90;;;;;;5008901;28;20450;-89
2021/04/11 06:54:30;;;;;;;1.33;1.10;;;14.10;96.50;;;;;;5034930;28;20443;-88
2021/04/11 06:57:09;;;;;;;2.93;1.30;;;14.00;96.10;;;;;;5035009;28;20439;-89
2021/04/11 06:59:58;;;;;;;1.80;1.47;;;13.90;96.60;;;;;;5031331;28;20783;-89
2021/04/11 07:03:07;;;;;;;2.37;1.43;;;14.40;99.90;;;;;;5034233;28;20447;-89
2021/04/11 07:06:10;;;;;;;3.10;1.40;;;14.90;99.90;;;;;;5035257;28;20467;-89
2021/04/11 07:08:58;;;;;;;3.17;1.10;;;14.90;99.90;;;;;;5035181;28;20443;-90
2021/04/11 07:11:52;;;;;;;2.40;0.93;;;14.80;94.50;;;;;;5035056;28;20454;-89
2021/04/11 07:14:53;;;;;;;1.73;0.80;;;14.40;94.40;;;;;;5032461;28;20464;-90
2021/04/11 07:17:46;;;;;;;1.10;0.80;;;13.90;94.80;;;;;;5034782;28;21115;-91
2021/04/11 07:20:31;;;;;;;1.23;1.07;;;14.50;99.20;;;;;;5036310;28;20444;-90
2021/04/11 07:23:24;;;;;;;2.03;1.20;;;14.40;99.90;;;;;;5034983;28;20447;-91
2021/04/11 07:26:12;;;;;;;0.87;0.83;;;14.70;99.90;;;;;;5033559;28;20482;-86
2021/04/11 07:28:50;;;;;;;2.20;1.20;;;14.80;94.40;;;;;;5034303;28;20486;-87
2021/04/11 07:31:35;;;;;;;1.60;1.50;;;14.70;94.30;;;;;;5034293;28;20447;-88
2021/04/11 07:34:37;;;;;;;1.30;1.13;;;14.50;94.20;;;;;;5032937;28;20455;-85
2021/04/11 07:37:16;;;;;;;2.40;1.27;;;14.60;94.40;;;;;;5003677;28;20846;-86
2021/04/11 07:39:49;;;;;;;2.20;1.33;;;15.10;93.90;;;;;;5028921;28;20462;-86
2021/04/11 07:42:54;;;;;;;4.00;1.10;;;16.10;99.80;;;;;;5033935;28;20448;-88
2021/04/11 07:45:33;;;;;;;1.13;1.03;;;16.20;91.90;;;;;;5016089;28;20479;-85
2021/04/11 07:48:44;;;;;;;1.50;1.10;;;15.60;92.20;;;;;;5032783;28;20482;-87
2021/04/11 07:51:37;;;;;;;1.93;1.57;;;16.00;92.30;;;;;;4973358;28;20899;-85
2021/04/11 07:54:21;;;;;;;1.23;0.80;;;16.30;92.50;;;;;;5033745;28;20455;-89
2021/04/11 07:57:07;;;;;;;3.70;1.40;;;16.80;91.40;;;;;;5033853;28;20456;-90
2021/04/11 07:59:59;;;;;;;1.43;1.00;;;16.80;90.90;;;;;;5034023;28;20452;-89
2021/04/11 08:02:43;;;;;;;5.80;1.50;;;16.40;91.30;;;;;;5024497;28;20456;-85
2021/04/11 08:05:23;;;;;;;1.00;0.73;;;16.20;99.90;;;;;;5013858;28;20987;-85
2021/04/11 08:08:17;;;;;;;1.83;1.00;;;16.30;91.50;;;;;;5014985;28;20448;-92
2021/04/11 08:11:22;;;;;;;1.17;0.80;;;16.40;99.90;;;;;;5010704;28;20452;-90
2021/04/11 08:13:55;;;;;;;1.40;1.10;;;16.40;99.90;;;;;;5018881;28;20459;-91
2021/04/11 08:16:47;;;;;;;2.27;1.10;;;16.90;99.60;;;;;;5017439;28;20849;-90
2021/04/11 08:19:48;;;;;;;0.90;0.73;;;17.10;91.40;;;;;;5015453;28;20792;-91
2021/04/11 08:22:34;;;;;;;1.40;0.83;;;17.00;90.40;;;;;;5012707;28;20456;-92
2021/04/11 08:25:15;;;;;;;1.37;0.93;;;16.10;91.30;;;;;;5017283;28;20440;-90
2021/04/11 08:28:28;;;;;;;2.50;0.70;;;16.40;91.60;;;;;;5014594;28;20591;-88
2021/04/11 08:31:33;;;;;;;0.77;0.40;;;16.60;99.50;;;;;;5013767;28;20448;-89
2021/04/11 08:34:47;;;;;;;1.40;1.00;;;16.60;90.80;;;;;;5012212;28;20444;-86
2021/04/11 08:37:43;;;;;;;1.10;0.70;;;16.70;96.20;;;;;;5013063;28;20460;-87
2021/04/11 08:40:18;;;;;;;0.70;0.53;;;15.40;99.90;;;;;;5014537;28;20970;-87
2021/04/11 08:43:13;;;;;;;2.43;0.73;;;16.30;99.90;;;;;;5032318;28;20440;-88
2021/04/11 08:45:51;;;;;;;1.03;0.50;;;16.10;99.90;;;;;;5029767;28;20463;-87
2021/04/11 08:48:39;;;;;;;0.93;0.80;;;15.90;91.70;;;;;;5012506;28;20495;-87
2021/04/11 08:51:14;;;;;;;0.80;0.70;;;16.10;99.90;;;;;;5012935;28;20462;-88
2021/04/11 08:53:57;;;;;;;1.63;0.90;;;15.90;92.40;;;;;;5012928;28;20452;-87
2021/04/11 08:56:30;;;;;;;2.50;0.97;;;16.10;97.00;;;;;;5010038;28;20574;-86
2021/04/11 08:59:02;;;;;;;2.10;0.90;;;15.70;99.90;;;;;;5013085;28;20444;-87
2021/04/11 09:01:49;;;;;;;1.50;0.73;;;15.70;99.90;;;;;;5023962;28;20788;-88
2021/04/11 09:04:21;;;;;;;2.63;0.93;;;15.70;92.30;;;;;;5012301;28;20468;-86
2021/04/11 09:07:19;;;;;;;1.10;1.00;;;15.70;92.40;;;;;;5013041;28;20453;-88
2021/04/11 09:10:00;;;;;;;1.53;1.13;;;15.60;99.90;;;;;;5018863;28;20583;-87
2021/04/11 09:12:36;;;;;;;1.53;0.90;;;15.80;99.90;;;;;;5033776;28;20451;-88
2021/04/11 09:15:12;;;;;;;1.03;0.93;;;16.00;92.40;;;;;;5034430;28;21083;-90
2021/04/11 09:17:53;;;;;;;1.43;1.03;;;15.80;91.90;;;;;;5020109;28;20464;-92
2021/04/11 09:20:25;;;;;;;1.90;1.07;;;15.80;92.30;;;;;;5017176;28;20458;-90
2021/04/11 09:23:16;;;;;;;0.80;0.70;;;15.70;92.30;;;;;;5015549;28;20448;-90
2021/04/11 09:25:55;;;;;;;1.33;1.13;;;16.50;99.90;;;;;;5021262;28;20951;-91
2021/04/11 09:28:49;;;;;;;1.77;1.03;;;16.30;92.70;;;;;;5029497;28;20949;-91
2021/04/11 09:31:32;;;;;;;1.00;0.90;;;17.20;97.40;;;;;;5027958;28;20451;-87
2021/04/11 09:34:22;;;;;;;1.03;0.87;;;16.40;99.70;;;;;;5013321;28;20818;-89
2021/04/11 09:37:07;;;;;;;0.90;0.80;;;16.70;99.70;;;;;;5017119;28;20507;-90
2021/04/11 09:40:02;;;;;;;1.37;1.03;;;16.60;96.30;;;;;;5029603;28;20507;-91
2021/04/11 09:43:08;;;;;;;0.90;0.80;;;17.30;97.20;;;;;;5033909;28;20963;-89
2021/04/11 09:45:57;;;;;;;0.90;0.70;;;18.10;98.60;;;;;;5032769;28;20457;-85
2021/04/11 09:49:00;;;;;;;1.30;0.90;;;17.80;98.60;;;;;;5041847;28;20903;-87
2021/04/11 09:51:53;;;;;;;1.97;1.17;;;18.50;94.00;;;;;;4974337;28;20457;-87
2021/04/11 09:54:32;;;;;;;1.00;0.90;;;18.00;94.60;;;;;;4954643;29;21006;-87
2021/04/11 09:57:41;;;;;;;1.67;1.13;;;18.40;97.80;;;;;;5018450;28;20462;-87
2021/04/11 10:00:16;;;;;;;2.07;1.30;;;19.60;97.00;;;;;;5013780;28;20454;-87
2021/04/11 10:03:18;;;;;;;1.30;1.00;;;20.10;92.90;;;;;;5039918;28;20471;-89
2021/04/11 10:05:53;;;;;;;1.30;1.00;;;20.70;95.70;;;;;;5040427;28;20443;-89
2021/04/11 10:08:36;;;;;;;1.93;1.10;;;20.90;92.60;;;;;;5033461;28;20450;-89
2021/04/11 10:11:23;;;;;;;3.87;1.10;;;20.20;95.60;;;;;;5033549;28;20451;-88
2021/04/11 10:14:10;;;;;;;2.00;1.00;;;19.90;80.90;;;;;;5035814;28;20526;-87
2021/04/11 10:16:50;;;;;;;1.30;1.20;;;18.70;94.50;;;;;;5037982;28;20486;-88
2021/04/11 10:19:41;;;;;;;2.30;1.20;;;18.30;80.50;;;;;;5036557;28;20803;-90
2021/04/11 10:22:25;;;;;;;2.40;1.03;;;19.00;79.90;;;;;;5038013;28;20455;-89
2021/04/11 10:25:04;;;;;;;1.20;0.83;;;18.30;94.00;;;;;;5039342;28;20450;-92
2021/04/11 10:27:38;;;;;;;0.80;0.77;;;17.30;95.50;;;;;;5040173;28;20508;-90
2021/04/11 10:30:08;;;;;;;2.13;0.83;;;17.40;93.00;;;;;;5040281;28;20455;-90
2021/04/11 10:32:41;;;;;;;2.60;0.90;;;17.40;94.60;;;;;;5035726;28;20459;-90
2021/04/11 10:35:13;;;;;;;1.37;0.97;;;17.10;83.10;;;;;;5028817;28;20478;-87
2021/04/11 10:37:42;;;;;;;1.00;0.80;;;17.10;88.40;;;;;;5028778;28;20439;-89
2021/04/11 10:40:19;;;;;;;3.73;1.10;;;17.10;83.30;;;;;;5035465;28;20443;-88
2021/04/11 10:42:58;;;;;;;1.33;1.23;;;17.20;83.70;;;;;;5032252;28;20823;-88
2021/04/11 10:45:33;;;;;;;1.90;0.70;;;17.00;98.10;;;;;;5037334;28;20439;-92
2021/04/11 10:48:37;;;;;;;1.20;0.80;;;17.10;94.70;;;;;;5034836;28;20443;-87
2021/04/11 10:51:28;;;;;;;2.30;1.00;;;16.80;92.60;;;;;;5031909;28;20471;-88
2021/04/11 10:54:12;;;;;;;2.43;1.50;;;17.10;90.50;;;;;;5037255;28;20431;-91
2021/04/11 10:56:45;;;;;;;2.37;1.17;;;16.60;95.30;;;;;;5036768;28;20498;-90
2021/04/11 10:59:43;;;;;;;2.07;1.07;;;16.70;98.40;;;;;;5033345;28;20467;-91
2021/04/11 11:02:34;;;;;;;1.40;1.23;;;16.80;94.60;;;;;;5036546;28;20517;-92
2021/04/11 11:05:34;;;;;;;1.67;1.17;;;16.40;96.60;;;;;;5023970;28;20463;-89
2021/04/11 11:08:19;;;;;;;2.00;1.10;;;16.60;85.10;;;;;;4996767;28;20456;-92
2021/04/11 11:10:56;;;;;;;1.73;0.90;;;16.60;96.20;;;;;;5009416;28;20458;-93
2021/04/11 11:13:40;;;;;;;1.77;1.33;;;16.80;88.30;;;;;;5000504;28;20448;-91
2021/04/11 11:16:32;;;;;;;1.67;1.30;;;16.70;98.10;;;;;;5015644;28;20488;-88
2021/04/11 11:19:09;;;;;;;2.50;1.47;;;16.80;94.90;;;;;;5013873;28;20610;-89
2021/04/11 11:21:54;;;;;;;1.97;1.10;;;16.80;98.40;;;;;;5015682;28;20459;-89
2021/04/11 11:24:31;;;;;;;1.80;1.40;;;17.60;98.30;;;;;;5016678;28;20449;-90
2021/04/11 11:27:07;;;;;;;1.77;1.37;;;17.80;94.00;;;;;;5015196;28;20492;-89
2021/04/11 11:29:55;;;;;;;2.13;1.40;;;18.30;97.90;;;;;;5015154;28;20458;-89
2021/04/11 11:32:29;;;;;;;1.50;1.30;;;18.70;95.90;;;;;;5014278;28;20510;-90
2021/04/11 11:35:01;;;;;;;5.90;1.50;;;19.50;96.30;;;;;;5015285;28;20499;-88
2021/04/11 11:37:44;;;;;;;4.43;1.13;;;19.70;92.90;;;;;;5014777;28;20520;-88
2021/04/11 11:40:22;;;;;;;2.80;1.50;;;18.60;96.10;;;;;;5016041;28;20448;-90
2021/04/11 11:42:59;;;;;;;3.33;1.77;;;18.10;88.90;;;;;;5017230;28;20452;-90
2021/04/11 11:45:33;;;;;;;3.33;1.30;;;18.30;96.50;;;;;;5010366;28;20452;-90
2021/04/11 11:48:27;;;;;;;3.40;1.40;;;18.90;80.90;;;;;;5013192;28;20452;-89
2021/04/11 11:50:58;;;;;;;2.73;1.50;;;19.40;92.60;;;;;;5014111;28;20480;-90
2021/04/11 11:53:27;;;;;;;1.73;1.50;;;20.50;95.60;;;;;;5014155;28;20500;-88
2021/04/11 11:56:05;;;;;;;2.67;1.70;;;20.40;75.60;;;;;;5014028;28;20496;-90
2021/04/11 11:58:40;;;;;;;3.77;1.40;;;21.20;74.70;;;;;;5013924;28;20451;-89
2021/04/11 12:01:17;;;;;;;2.20;1.20;;;21.50;72.80;;;;;;5014194;28;20455;-90
2021/04/11 12:03:47;;;;;;;1.13;1.03;;;20.70;73.30;;;;;;5013364;28;20447;-91
2021/04/11 12:06:18;;;;;;;2.20;1.53;;;20.40;74.50;;;;;;5015618;28;20452;-91
2021/04/11 12:08:54;;;;;;;1.57;1.27;;;21.00;74.40;;;;;;5011563;28;20463;-91
2021/04/11 12:11:33;;;;;;;6.97;2.00;;;20.70;71.90;;;;;;5011806;28;20433;-89
2021/04/11 12:14:06;;;;;;;1.80;1.20;;;20.10;72.10;;;;;;5016451;28;20449;-92
2021/04/11 12:16:38;;;;;;;1.77;1.20;;;20.20;71.80;;;;;;5010170;28;20499;-90
2021/04/11 12:19:12;;;;;;;1.00;0.83;;;20.40;74.40;;;;;;5013737;28;20491;-92
2021/04/11 12:21:41;;;;;;;1.20;1.07;;;20.50;71.00;;;;;;5009839;28;20806;-91
2021/04/11 12:24:14;;;;;;;2.73;1.13;;;20.40;71.70;;;;;;5009321;28;20445;-92
2021/04/11 12:26:47;;;;;;;1.93;1.37;;;20.50;88.50;;;;;;5011074;28;20452;-91
2021/04/11 12:29:14;;;;;;;2.17;1.50;;;19.60;74.80;;;;;;5013083;28;20461;-90
2021/04/11 12:31:44;;;;;;;4.77;1.87;;;20.30;99.90;;;;;;5014151;28;20452;-88
2021/04/11 12:34:22;;;;;;;2.37;1.40;;;20.50;73.50;;;;;;5014069;28;20455;-92
2021/04/11 12:36:59;;;;;;;2.00;1.17;;;20.70;72.10;;;;;;5014693;28;20499;-91
2021/04/11 12:39:28;;;;;;;1.97;1.13;;;20.40;98.70;;;;;;5011712;28;20448;-91
2021/04/11 12:42:05;;;;;;;1.30;1.10;;;20.00;97.20;;;;;;5014251;28;20444;-90
2021/04/11 12:44:36;;;;;;;2.40;1.23;;;19.90;98.70;;;;;;5014330;28;20516;-92
2021/04/11 12:47:14;;;;;;;1.73;1.00;;;19.40;75.30;;;;;;5013450;28;20948;-93
2021/04/11 12:49:50;;;;;;;2.10;1.20;;;19.10;74.20;;;;;;5008458;28;20477;-90
2021/04/11 12:52:28;;;;;;;2.57;1.23;;;19.20;99.90;;;;;;5015553;28;20443;-91
2021/04/11 12:55:02;;;;;;;1.57;1.10;;;19.10;99.90;;;;;;5013049;28;20448;-95
2021/04/11 12:57:32;;;;;;;1.90;1.10;;;19.20;76.70;;;;;;5015030;28;20429;-90
2021/04/11 13:00:05;;;;;;;2.30;1.10;;;19.00;76.80;;;;;;5014416;28;20433;-91
2021/04/11 13:02:51;;;;;;;1.50;1.37;;;20.00;79.00;;;;;;5013252;28;20559;-91
2021/04/11 13:05:30;;;;;;;2.30;1.10;;;19.90;76.40;;;;;;5010718;28;20943;-90
2021/04/11 13:08:03;;;;;;;1.37;1.00;;;19.70;99.90;;;;;;5012462;28;20425;-91
2021/04/11 13:10:34;;;;;;;1.10;0.80;;;19.10;75.60;;;;;;5009489;28;20455;-92
2021/04/11 13:13:08;;;;;;;0.60;0.57;;;19.00;99.50;;;;;;5013216;28;20450;-90
2021/04/11 13:15:38;;;;;;;1.13;1.03;;;18.60;77.40;;;;;;5010285;28;20492;-91
2021/04/11 13:18:20;;;;;;;1.13;0.90;;;18.10;99.90;;;;;;5008504;28;20483;-91
2021/04/11 13:21:03;;;;;;;2.83;1.07;;;18.70;92.70;;;;;;5013343;28;20511;-88
2021/04/11 13:23:36;;;;;;;1.87;0.80;;;18.60;76.20;;;;;;5014566;28;20436;-91
2021/04/11 13:26:10;;;;;;;1.00;0.53;;;18.60;76.10;;;;;;5017936;28;20451;-88
2021/04/11 13:28:43;;;;;;;2.40;0.77;;;18.90;99.70;;;;;;5018068;28;20549;-91
2021/04/11 13:31:13;;;;;;;2.00;0.80;;;18.70;77.90;;;;;;5017721;28;20440;-92
2021/04/11 13:33:47;;;;;;;2.13;0.70;;;18.90;77.50;;;;;;5012623;28;20448;-90
2021/04/11 13:36:28;;;;;;;2.07;1.07;;;18.70;88.50;;;;;;5017301;28;20498;-91
2021/04/11 13:39:02;;;;;;;2.40;0.73;;;18.50;99.80;;;;;;5014352;28;20456;-90
2021/04/11 13:41:42;;;;;;;2.87;1.23;;;18.60;87.50;;;;;;5017238;28;20455;-90